Time;durP1;ratioP1;P1;durP2;ratioP2;P2;SDS_P1;SDS_P2;PMS_P1;PMS_P2;Temp;Humidity;BMP_temperature;BMP_pressure;BME280_temperature;BME280_humidity;BME280_pressure;Samples;Min_cycle;Max_cycle;Signal;HPM_P1;HPM_P2
2021/01/03 00:00:27;;;;;;;21.05;14.07;;;;;;;;;;5057565;28;20021;-85
2021/01/03 00:02:53;;;;;;;21.27;13.57;;;;;;;;;;5057442;28;20037;-87
2021/01/03 00:05:21;;;;;;;20.33;14.48;;;;;;;;;;5056180;28;20044;-88
2021/01/03 00:07:48;;;;;;;26.80;15.55;;;;;;;;;;5057383;28;20057;-86
2021/01/03 00:10:14;;;;;;;26.10;16.60;;;;;;;;;;5057548;28;20036;-86
2021/01/03 00:12:40;;;;;;;25.15;14.95;;;;;;;;;;5047521;28;20407;-86
2021/01/03 00:15:08;;;;;;;26.15;16.77;;;;;;;;;;5057233;28;20060;-88
2021/01/03 00:17:35;;;;;;;24.45;15.85;;;;;;;;;;5056496;28;20025;-88
2021/01/03 00:20:01;;;;;;;25.30;16.00;;;;;;;;;;5056613;28;20095;-86
2021/01/03 00:22:28;;;;;;;25.77;15.98;;;;;;;;;;5057683;28;20025;-85
2021/01/03 00:25:31;;;;;;;23.40;15.65;;;;;;;;;;5056444;28;20021;-87
2021/01/03 00:27:57;;;;;;;24.25;15.50;;;;;;;;;;5057437;28;20423;-86
2021/01/03 00:30:24;;;;;;;25.70;15.95;;;;;;;;;;5057303;28;20025;-86
2021/01/03 00:32:51;;;;;;;29.45;17.77;;;;;;;;;;5057688;28;20037;-86
2021/01/03 00:35:19;;;;;;;28.67;17.17;;;;;;;;;;5057218;28;20112;-86
2021/01/03 00:37:45;;;;;;;30.75;17.05;;;;;;;;;;5057315;28;20067;-86
2021/01/03 00:40:30;;;;;;;26.67;17.73;;;;;;;;;;5059285;28;20335;-85
2021/01/03 00:42:57;;;;;;;26.38;16.40;;;;;;;;;;5060064;28;20021;-86
2021/01/03 00:45:23;;;;;;;28.13;17.85;;;;;;;;;;5060779;28;20116;-85
2021/01/03 00:47:49;;;;;;;28.10;17.95;;;;;;;;;;5061004;28;20024;-85
2021/01/03 00:50:16;;;;;;;26.42;16.77;;;;;;;;;;5061314;28;20414;-87
2021/01/03 00:52:45;;;;;;;25.55;16.88;;;;;;;;;;5060676;28;20059;-84
2021/01/03 00:55:12;;;;;;;27.70;17.90;;;;;;;;;;5059315;28;20053;-85
2021/01/03 00:57:41;;;;;;;29.42;18.58;;;;;;;;;;5059220;28;20029;-85
2021/01/03 01:00:10;;;;;;;26.27;16.42;;;;;;;;;;5060938;28;20112;-86
2021/01/03 01:02:36;;;;;;;27.77;17.73;;;;;;;;;;5060649;28;20071;-87
2021/01/03 01:05:02;;;;;;;25.50;17.50;;;;;;;;;;5060658;28;20029;-87
2021/01/03 01:07:28;;;;;;;28.10;18.05;;;;;;;;;;5060224;28;20136;-86
2021/01/03 01:10:15;;;;;;;29.92;18.50;;;;;;;;;;5060476;28;20021;-86
2021/01/03 01:12:41;;;;;;;28.02;17.25;;;;;;;;;;5059621;28;20041;-86
2021/01/03 01:15:10;;;;;;;27.23;17.13;;;;;;;;;;5060363;28;20063;-85
2021/01/03 01:17:36;;;;;;;27.75;17.35;;;;;;;;;;5060213;28;20029;-86
2021/01/03 01:20:03;;;;;;;29.13;19.15;;;;;;;;;;5060603;28;20033;-85
2021/01/03 01:22:29;;;;;;;29.80;19.20;;;;;;;;;;5059304;28;20029;-84
2021/01/03 01:24:55;;;;;;;27.65;18.38;;;;;;;;;;5059134;28;20036;-86
2021/01/03 01:27:21;;;;;;;29.77;19.67;;;;;;;;;;5060401;28;20031;-85
2021/01/03 01:29:47;;;;;;;33.97;20.23;;;;;;;;;;5059086;28;20063;-85
2021/01/03 01:32:13;;;;;;;29.00;18.77;;;;;;;;;;5059967;28;20029;-85
2021/01/03 01:34:39;;;;;;;31.85;19.83;;;;;;;;;;5059899;28;20040;-85
2021/01/03 01:37:05;;;;;;;31.30;19.08;;;;;;;;;;5059898;28;20053;-85
2021/01/03 01:45:40;;;;;;;29.83;19.70;;;;;;;;;;5059678;28;20070;-86
2021/01/03 01:48:35;;;;;;;31.20;18.83;;;;;;;;;;5059712;28;20025;-85
2021/01/03 01:51:06;;;;;;;26.73;17.92;;;;;;;;;;5057590;28;20040;-86
2021/01/03 01:53:34;;;;;;;32.13;18.67;;;;;;;;;;5057858;28;20033;-86
2021/01/03 01:56:27;;;;;;;30.88;18.67;;;;;;;;;;5041089;28;20403;-86
2021/01/03 01:59:01;;;;;;;29.95;17.70;;;;;;;;;;5054360;28;20037;-85
2021/01/03 02:01:30;;;;;;;31.25;18.65;;;;;;;;;;5057597;28;20128;-85
2021/01/03 02:04:00;;;;;;;31.65;18.10;;;;;;;;;;5057766;28;20017;-85
2021/01/03 02:06:36;;;;;;;30.15;19.10;;;;;;;;;;5041039;28;20037;-85
2021/01/03 02:09:06;;;;;;;30.55;18.45;;;;;;;;;;5057696;28;20029;-85
2021/01/03 02:11:32;;;;;;;29.23;18.35;;;;;;;;;;5057605;28;20048;-89
2021/01/03 02:14:00;;;;;;;30.45;19.88;;;;;;;;;;5040965;28;20056;-87
2021/01/03 02:16:30;;;;;;;29.98;18.35;;;;;;;;;;5057523;28;20040;-87
2021/01/03 02:18:56;;;;;;;30.05;18.80;;;;;;;;;;5057627;28;20021;-87
2021/01/03 02:21:25;;;;;;;31.05;19.33;;;;;;;;;;5057533;28;20037;-87
2021/01/03 02:23:57;;;;;;;32.97;20.05;;;;;;;;;;5057509;28;20021;-87
2021/01/03 02:26:24;;;;;;;35.92;20.00;;;;;;;;;;5057672;28;20028;-88
2021/01/03 02:28:51;;;;;;;31.05;19.00;;;;;;;;;;5058180;28;20407;-89
2021/01/03 02:31:19;;;;;;;33.38;19.75;;;;;;;;;;5058023;28;20044;-88
2021/01/03 02:33:47;;;;;;;32.13;18.83;;;;;;;;;;5059212;28;20028;-89
2021/01/03 02:36:21;;;;;;;32.20;19.25;;;;;;;;;;5058811;28;20029;-88
2021/01/03 02:38:50;;;;;;;40.90;25.48;;;;;;;;;;5057782;28;20071;-92
2021/01/03 02:41:17;;;;;;;31.30;18.80;;;;;;;;;;5058644;28;20474;-86
2021/01/03 02:43:45;;;;;;;30.25;18.02;;;;;;;;;;5057609;28;20407;-86
2021/01/03 02:46:11;;;;;;;30.77;18.70;;;;;;;;;;5057731;28;20483;-85
2021/01/03 02:48:37;;;;;;;32.67;18.80;;;;;;;;;;5058704;28;20111;-87
2021/01/03 02:51:04;;;;;;;29.42;18.23;;;;;;;;;;5058496;28;20021;-87
2021/01/03 02:53:30;;;;;;;31.88;17.73;;;;;;;;;;5058808;28;20029;-88
2021/01/03 02:55:56;;;;;;;28.10;18.23;;;;;;;;;;5058451;28;20071;-86
2021/01/03 02:58:22;;;;;;;29.65;16.95;;;;;;;;;;5057549;28;20128;-87
2021/01/03 03:00:48;;;;;;;26.85;17.33;;;;;;;;;;5058306;28;20013;-86
2021/01/03 03:03:14;;;;;;;25.98;17.20;;;;;;;;;;5057618;28;20036;-87
2021/01/03 03:05:40;;;;;;;28.92;16.60;;;;;;;;;;5058378;28;20115;-86
2021/01/03 03:08:06;;;;;;;29.05;17.40;;;;;;;;;;5058074;28;20045;-87
2021/01/03 03:13:35;;;;;;;27.80;16.80;;;;;;;;;;5058304;28;20366;-86
2021/01/03 03:16:02;;;;;;;26.10;16.83;;;;;;;;;;5058233;28;20456;-88
2021/01/03 03:18:28;;;;;;;30.85;16.88;;;;;;;;;;5057216;28;20025;-89
2021/01/03 03:20:54;;;;;;;27.40;16.50;;;;;;;;;;5057073;28;20407;-88
2021/01/03 03:23:20;;;;;;;29.00;16.58;;;;;;;;;;5058235;28;20021;-89
2021/01/03 03:25:48;;;;;;;28.80;17.67;;;;;;;;;;5058047;28;20060;-88
2021/01/03 03:28:15;;;;;;;33.35;17.73;;;;;;;;;;5057955;28;20033;-88
2021/01/03 03:30:41;;;;;;;26.75;16.05;;;;;;;;;;5057843;28;20032;-89
2021/01/03 03:33:07;;;;;;;30.63;17.20;;;;;;;;;;5057849;28;20037;-86
2021/01/03 03:35:37;;;;;;;28.63;16.65;;;;;;;;;;5057677;28;20399;-87
2021/01/03 03:38:04;;;;;;;30.42;17.15;;;;;;;;;;5057738;28;20040;-86
2021/01/03 03:40:32;;;;;;;28.63;16.38;;;;;;;;;;5057678;28;20024;-86
2021/01/03 03:42:59;;;;;;;30.17;16.80;;;;;;;;;;5057622;28;20029;-87
2021/01/03 03:45:26;;;;;;;28.63;17.15;;;;;;;;;;5057677;28;20502;-87
2021/01/03 03:47:52;;;;;;;31.77;17.33;;;;;;;;;;5057643;28;20120;-86
2021/01/03 03:50:21;;;;;;;28.60;17.58;;;;;;;;;;5057871;28;20028;-86
2021/01/03 03:52:47;;;;;;;30.33;17.52;;;;;;;;;;5057344;28;20040;-86
2021/01/03 03:55:31;;;;;;;29.80;16.33;;;;;;;;;;5057493;28;20399;-86
2021/01/03 03:57:57;;;;;;;29.15;17.50;;;;;;;;;;5057400;28;20411;-86
2021/01/03 04:00:24;;;;;;;27.60;15.90;;;;;;;;;;5057563;28;20021;-86
2021/01/03 04:02:50;;;;;;;30.65;17.77;;;;;;;;;;5057755;28;20095;-86
2021/01/03 04:05:18;;;;;;;35.10;18.75;;;;;;;;;;5056564;28;20104;-86
2021/01/03 04:07:44;;;;;;;34.30;19.42;;;;;;;;;;5057305;28;20049;-86
2021/01/03 04:10:10;;;;;;;29.35;18.02;;;;;;;;;;5057261;28;20422;-86
2021/01/03 04:12:36;;;;;;;30.42;17.52;;;;;;;;;;5057735;28;20119;-87
2021/01/03 04:15:04;;;;;;;45.97;21.65;;;;;;;;;;5059165;28;20044;-88
2021/01/03 04:17:30;;;;;;;37.97;20.45;;;;;;;;;;5061371;28;20071;-87
2021/01/03 04:19:56;;;;;;;35.28;18.42;;;;;;;;;;5061203;28;20032;-85
2021/01/03 04:22:22;;;;;;;33.53;19.33;;;;;;;;;;5061361;28;20021;-85
2021/01/03 04:24:48;;;;;;;27.95;16.75;;;;;;;;;;5060479;28;20104;-85
2021/01/03 04:27:14;;;;;;;31.13;17.55;;;;;;;;;;5061154;28;20032;-85
2021/01/03 04:29:40;;;;;;;26.75;15.30;;;;;;;;;;5061173;28;20391;-86
2021/01/03 04:32:08;;;;;;;33.83;16.73;;;;;;;;;;5061237;28;20032;-86
2021/01/03 04:34:35;;;;;;;27.52;16.60;;;;;;;;;;5061367;28;20028;-86
2021/01/03 04:37:01;;;;;;;33.42;17.42;;;;;;;;;;5060966;28;20112;-86
2021/01/03 04:39:28;;;;;;;26.90;15.40;;;;;;;;;;5061460;28;20070;-87
2021/01/03 04:42:13;;;;;;;30.95;16.60;;;;;;;;;;5060991;28;20025;-86
2021/01/03 04:44:44;;;;;;;26.67;15.40;;;;;;;;;;5060134;28;20398;-86
2021/01/03 04:47:19;;;;;;;26.13;15.60;;;;;;;;;;5061257;28;20025;-87
2021/01/03 04:49:58;;;;;;;29.50;15.40;;;;;;;;;;5060717;28;20021;-88
2021/01/03 04:52:26;;;;;;;26.35;14.30;;;;;;;;;;5061094;28;20079;-86
2021/01/03 04:55:08;;;;;;;26.63;15.15;;;;;;;;;;5061023;28;20143;-87
2021/01/03 04:57:41;;;;;;;29.38;15.20;;;;;;;;;;5060700;28;20100;-87
2021/01/03 05:00:07;;;;;;;25.60;15.45;;;;;;;;;;5059847;28;20103;-87
2021/01/03 05:02:48;;;;;;;23.42;14.02;;;;;;;;;;5060741;28;20343;-88
2021/01/03 05:05:23;;;;;;;25.58;14.43;;;;;;;;;;5060582;28;20053;-86
2021/01/03 05:07:55;;;;;;;23.88;13.32;;;;;;;;;;5059649;28;20090;-87
2021/01/03 05:10:23;;;;;;;23.40;13.65;;;;;;;;;;5060785;28;20059;-87
2021/01/03 05:12:55;;;;;;;26.45;14.05;;;;;;;;;;5060621;28;20036;-86
2021/01/03 05:15:26;;;;;;;21.48;12.90;;;;;;;;;;5060812;28;20112;-87
2021/01/03 05:17:53;;;;;;;25.73;13.40;;;;;;;;;;5060395;28;20029;-87
2021/01/03 05:20:20;;;;;;;22.98;13.13;;;;;;;;;;5060231;28;20028;-85
2021/01/03 05:22:46;;;;;;;22.75;13.13;;;;;;;;;;5060551;28;20033;-85
2021/01/03 05:25:17;;;;;;;23.08;13.07;;;;;;;;;;5059912;28;20025;-84
2021/01/03 05:27:43;;;;;;;22.40;12.75;;;;;;;;;;5060657;28;20307;-87
2021/01/03 05:30:15;;;;;;;22.40;13.35;;;;;;;;;;5044861;28;20052;-86
2021/01/03 05:32:41;;;;;;;24.85;13.20;;;;;;;;;;5039283;28;20033;-86
2021/01/03 05:35:21;;;;;;;26.33;14.38;;;;;;;;;;5040228;28;20034;-87
2021/01/03 05:37:48;;;;;;;26.38;13.68;;;;;;;;;;5040239;28;20030;-88
2021/01/03 05:40:19;;;;;;;23.33;13.43;;;;;;;;;;5040348;28;20018;-87
2021/01/03 05:42:45;;;;;;;26.23;13.90;;;;;;;;;;5039939;28;20446;-87
2021/01/03 05:45:31;;;;;;;25.80;14.30;;;;;;;;;;5040007;28;20017;-88
2021/01/03 05:48:01;;;;;;;23.60;13.55;;;;;;;;;;5039670;28;20033;-88
2021/01/03 05:50:32;;;;;;;22.38;13.55;;;;;;;;;;5040110;28;20064;-87
2021/01/03 05:53:00;;;;;;;23.75;13.32;;;;;;;;;;5038946;28;20025;-87
2021/01/03 05:55:27;;;;;;;27.40;14.60;;;;;;;;;;5039713;28;20025;-87
2021/01/03 05:58:11;;;;;;;21.55;13.82;;;;;;;;;;5040024;28;20029;-88
2021/01/03 06:00:39;;;;;;;22.70;11.95;;;;;;;;;;5039823;28;20025;-89
2021/01/03 06:03:23;;;;;;;20.30;13.02;;;;;;;;;;5047007;28;20032;-86
2021/01/03 06:05:51;;;;;;;23.08;11.40;;;;;;;;;;5059500;28;20194;-87
2021/01/03 06:08:20;;;;;;;20.13;11.48;;;;;;;;;;5059317;28;20061;-86
2021/01/03 06:10:46;;;;;;;23.88;11.40;;;;;;;;;;5059479;28;20426;-88
2021/01/03 06:13:13;;;;;;;20.58;11.50;;;;;;;;;;5058416;28;20033;-89
2021/01/03 06:15:44;;;;;;;20.70;11.68;;;;;;;;;;5059433;28;20033;-86
2021/01/03 06:18:15;;;;;;;20.58;12.18;;;;;;;;;;5057970;28;20100;-87
2021/01/03 06:20:42;;;;;;;19.70;11.43;;;;;;;;;;5059490;28;20021;-87
2021/01/03 06:23:17;;;;;;;20.20;11.98;;;;;;;;;;5058371;28;20021;-86
2021/01/03 06:28:51;;;;;;;21.42;12.48;;;;;;;;;;5059317;28;20032;-88
2021/01/03 06:31:36;;;;;;;24.95;12.60;;;;;;;;;;5058130;28;20021;-88
2021/01/03 06:34:08;;;;;;;25.85;12.77;;;;;;;;;;5058907;28;20100;-87
2021/01/03 06:36:44;;;;;;;25.33;13.73;;;;;;;;;;5058855;28;20028;-88
2021/01/03 06:39:12;;;;;;;26.25;14.35;;;;;;;;;;5058633;28;20021;-87
2021/01/03 06:41:56;;;;;;;20.50;11.55;;;;;;;;;;5059110;28;20098;-88
2021/01/03 06:44:34;;;;;;;17.13;10.32;;;;;;;;;;5058890;28;20021;-88
2021/01/03 06:47:19;;;;;;;20.40;11.40;;;;;;;;;;5058692;28;20025;-87
2021/01/03 06:50:04;;;;;;;17.58;11.23;;;;;;;;;;5057545;28;20067;-88
2021/01/03 06:52:30;;;;;;;19.52;10.73;;;;;;;;;;5058570;28;20047;-87
2021/01/03 06:55:14;;;;;;;16.27;9.23;;;;;;;;;;5058499;28;20049;-87
2021/01/03 06:57:43;;;;;;;16.63;9.68;;;;;;;;;;5058477;28;20470;-87
2021/01/03 07:00:23;;;;;;;15.35;9.25;;;;;;;;;;5058341;28;20029;-87
2021/01/03 07:02:52;;;;;;;15.35;9.35;;;;;;;;;;5058290;28;20032;-86
2021/01/03 07:05:18;;;;;;;19.60;10.57;;;;;;;;;;5058326;28;20032;-86
2021/01/03 07:07:54;;;;;;;18.05;8.77;;;;;;;;;;5058210;28;20048;-86
2021/01/03 07:10:57;;;;;;;19.05;9.73;;;;;;;;;;5057382;28;20068;-87
2021/01/03 07:13:29;;;;;;;15.35;9.30;;;;;;;;;;5058084;28;20032;-87
2021/01/03 07:15:56;;;;;;;15.23;7.97;;;;;;;;;;5057985;28;20135;-86
2021/01/03 07:18:22;;;;;;;14.77;8.57;;;;;;;;;;5057077;28;20033;-88
2021/01/03 07:21:03;;;;;;;14.68;8.82;;;;;;;;;;5058414;28;20021;-88
2021/01/03 07:23:29;;;;;;;31.73;12.02;;;;;;;;;;5058264;28;20031;-86
2021/01/03 07:26:33;;;;;;;70.65;24.83;;;;;;;;;;5053792;28;20029;-86
2021/01/03 07:29:08;;;;;;;66.05;23.88;;;;;;;;;;5056243;28;20029;-86
2021/01/03 07:31:34;;;;;;;50.80;22.48;;;;;;;;;;5039856;28;20083;-86
2021/01/03 07:34:10;;;;;;;50.85;24.67;;;;;;;;;;5039617;28;20033;-86
2021/01/03 07:36:42;;;;;;;50.55;27.08;;;;;;;;;;5056088;28;20028;-86
2021/01/03 07:39:11;;;;;;;33.72;17.77;;;;;;;;;;5056074;28;20451;-86
2021/01/03 07:44:57;;;;;;;16.40;10.73;;;;;;;;;;5056153;28;20063;-86
2021/01/03 07:47:23;;;;;;;;;;;;;;;;;;5056439;28;20454;-86
2021/01/03 07:49:49;;;;;;;24.60;13.73;;;;;;;;;;5055710;28;19938;-86
2021/01/03 07:52:18;;;;;;;21.13;11.25;;;;;;;;;;5055946;28;20025;-86
2021/01/03 07:54:55;;;;;;;25.05;12.40;;;;;;;;;;5056112;28;20066;-88
2021/01/03 08:01:01;;;;;;;15.20;9.68;;;;;;;;;;5056337;28;20365;-88
2021/01/03 08:03:27;;;;;;;14.30;8.20;;;;;;;;;;5042763;28;20339;-89
2021/01/03 08:05:53;;;;;;;13.07;8.70;;;;;;;;;;5036275;28;20026;-88
2021/01/03 08:08:24;;;;;;;13.18;8.63;;;;;;;;;;5037499;28;20478;-88
2021/01/03 08:13:59;;;;;;;17.30;10.93;;;;;;;;;;5037640;28;20109;-88
2021/01/03 08:16:28;;;;;;;14.90;10.00;;;;;;;;;;5037627;28;20120;-87
2021/01/03 08:18:55;;;;;;;13.07;9.50;;;;;;;;;;5037407;28;20033;-88
2021/01/03 08:21:22;;;;;;;12.80;8.70;;;;;;;;;;5037677;28;20022;-86
2021/01/03 08:23:48;;;;;;;10.55;6.85;;;;;;;;;;5036239;28;20029;-88
2021/01/03 08:29:39;;;;;;;14.40;7.90;;;;;;;;;;5037301;28;20472;-87
2021/01/03 08:32:08;;;;;;;22.95;11.07;;;;;;;;;;5036272;28;20045;-87
2021/01/03 08:34:37;;;;;;;13.00;9.15;;;;;;;;;;5056203;28;20124;-87
2021/01/03 08:37:14;;;;;;;19.40;10.82;;;;;;;;;;5057460;28;20375;-86
2021/01/03 08:39:40;;;;;;;17.98;10.25;;;;;;;;;;5057115;28;20033;-87
2021/01/03 08:42:07;;;;;;;15.85;9.65;;;;;;;;;;5056380;28;20032;-86
2021/01/03 08:44:36;;;;;;;22.65;12.38;;;;;;;;;;5041485;28;20167;-86
2021/01/03 08:47:06;;;;;;;16.10;9.48;;;;;;;;;;5047541;28;20029;-87
2021/01/03 08:49:32;;;;;;;17.25;9.63;;;;;;;;;;5039271;28;20032;-87
2021/01/03 08:52:09;;;;;;;15.05;9.18;;;;;;;;;;5037083;28;20117;-86
2021/01/03 08:54:35;;;;;;;12.35;7.13;;;;;;;;;;5036937;28;20029;-86
2021/01/03 08:57:21;;;;;;;13.25;7.90;;;;;;;;;;5037450;28;20469;-87
2021/01/03 08:59:51;;;;;;;12.38;8.38;;;;;;;;;;5036996;28;20036;-86
2021/01/03 09:02:22;;;;;;;19.02;9.68;;;;;;;;;;5040543;28;20517;-86
2021/01/03 09:04:49;;;;;;;18.20;10.50;;;;;;;;;;5041063;28;20037;-86
2021/01/03 09:07:15;;;;;;;22.17;13.90;;;;;;;;;;5039955;28;20049;-85
2021/01/03 09:09:46;;;;;;;18.52;10.10;;;;;;;;;;5040829;28;20037;-88
2021/01/03 09:12:12;;;;;;;22.73;16.00;;;;;;;;;;5049428;28;20415;-87
2021/01/03 09:14:47;;;;;;;12.68;8.13;;;;;;;;;;5039711;28;20060;-87
2021/01/03 09:17:18;;;;;;;10.63;7.47;;;;;;;;;;5040433;28;20061;-88
2021/01/03 09:19:51;;;;;;;12.25;8.02;;;;;;;;;;5039563;28;20026;-87
2021/01/03 09:22:28;;;;;;;11.85;7.65;;;;;;;;;;5040809;28;20017;-85
2021/01/03 09:25:01;;;;;;;15.30;9.05;;;;;;;;;;5040592;28;20025;-88
2021/01/03 09:27:28;;;;;;;14.48;8.48;;;;;;;;;;5040707;28;20142;-88
2021/01/03 09:30:06;;;;;;;15.73;9.30;;;;;;;;;;5040290;28;20038;-88
2021/01/03 09:32:32;;;;;;;11.30;7.20;;;;;;;;;;5040047;28;20052;-87
2021/01/03 09:34:58;;;;;;;20.00;9.93;;;;;;;;;;5040560;28;20033;-87
2021/01/03 09:37:29;;;;;;;18.10;9.93;;;;;;;;;;5040055;28;20407;-86
2021/01/03 09:40:13;;;;;;;29.83;13.68;;;;;;;;;;5039840;28;20048;-87
2021/01/03 09:42:42;;;;;;;24.25;12.82;;;;;;;;;;5039373;28;20088;-88
2021/01/03 09:45:14;;;;;;;19.40;10.02;;;;;;;;;;5039939;28;20028;-87
2021/01/03 09:47:42;;;;;;;12.23;7.43;;;;;;;;;;5040298;28;20025;-87
2021/01/03 09:50:14;;;;;;;13.38;8.10;;;;;;;;;;5040120;28;20037;-87
2021/01/03 09:52:43;;;;;;;16.70;10.05;;;;;;;;;;5040243;28;20029;-87
2021/01/03 09:55:12;;;;;;;19.55;10.90;;;;;;;;;;5040015;28;20029;-87
2021/01/03 09:57:54;;;;;;;22.20;13.05;;;;;;;;;;5038663;28;20454;-87
2021/01/03 10:00:22;;;;;;;24.02;15.90;;;;;;;;;;5039675;28;20029;-87
2021/01/03 10:02:48;;;;;;;20.83;14.98;;;;;;;;;;5039508;28;20424;-88
2021/01/03 10:05:26;;;;;;;24.38;16.10;;;;;;;;;;5038498;28;20465;-87
2021/01/03 10:07:56;;;;;;;33.47;21.75;;;;;;;;;;5038473;28;20064;-88
2021/01/03 10:10:22;;;;;;;34.33;22.13;;;;;;;;;;5039427;28;20035;-88
2021/01/03 10:12:48;;;;;;;22.73;15.07;;;;;;;;;;5038513;28;20404;-87
2021/01/03 10:15:26;;;;;;;28.67;17.05;;;;;;;;;;5039880;28;20037;-87
2021/01/03 10:17:57;;;;;;;22.48;16.00;;;;;;;;;;5038476;28;20033;-87
2021/01/03 10:21:02;;;;;;;17.42;11.15;;;;;;;;;;5038627;28;20030;-87
2021/01/03 10:23:32;;;;;;;23.08;12.43;;;;;;;;;;5037736;28;20044;-86
2021/01/03 10:29:01;;;;;;;28.80;13.73;;;;;;;;;;5037553;28;20075;-87
2021/01/03 10:31:48;;;;;;;30.08;15.18;;;;;;;;;;5020868;28;20051;-87
2021/01/03 10:34:15;;;;;;;44.60;14.35;;;;;;;;;;5037418;28;20056;-86
2021/01/03 10:36:41;;;;;;;31.10;16.60;;;;;;;;;;5037554;28;20025;-87
2021/01/03 10:39:08;;;;;;;71.75;24.85;;;;;;;;;;5037299;28;20029;-87
2021/01/03 10:44:37;;;;;;;42.08;22.98;;;;;;;;;;5037196;28;20083;-88
2021/01/03 10:47:04;;;;;;;32.33;19.17;;;;;;;;;;5020579;28;20423;-88
2021/01/03 10:49:30;;;;;;;36.25;20.85;;;;;;;;;;5020343;28;20141;-88
2021/01/03 10:51:56;;;;;;;36.10;20.00;;;;;;;;;;5037016;28;20330;-87
2021/01/03 10:54:27;;;;;;;52.53;28.55;;;;;;;;;;5037960;28;20087;-87
2021/01/03 11:00:18;;;;;;;20.95;13.07;;;;;;;;;;5038929;28;20470;-88
2021/01/03 11:02:44;;;;;;;18.70;10.85;;;;;;;;;;5038317;28;20038;-86
2021/01/03 11:05:11;;;;;;;25.58;12.00;;;;;;;;;;5037758;28;20428;-86
2021/01/03 11:07:37;;;;;;;24.38;13.05;;;;;;;;;;5038247;28;20065;-85
2021/01/03 11:10:05;;;;;;;36.45;20.02;;;;;;;;;;5037475;28;20029;-86
2021/01/03 11:12:52;;;;;;;27.30;17.27;;;;;;;;;;5037661;28;20053;-84
2021/01/03 11:15:18;;;;;;;28.58;17.50;;;;;;;;;;5037303;28;20072;-86
2021/01/03 11:17:44;;;;;;;22.65;12.80;;;;;;;;;;5038452;28;20021;-86
2021/01/03 11:20:10;;;;;;;29.73;13.98;;;;;;;;;;5038424;28;20036;-86
2021/01/03 11:22:36;;;;;;;25.60;13.20;;;;;;;;;;5038594;28;20041;-86
2021/01/03 11:25:03;;;;;;;21.23;12.85;;;;;;;;;;5037839;28;20037;-86
2021/01/03 11:27:29;;;;;;;25.13;12.90;;;;;;;;;;5038060;28;20065;-87
2021/01/03 11:29:56;;;;;;;27.65;15.30;;;;;;;;;;5038125;28;20041;-87
2021/01/03 11:32:23;;;;;;;25.10;14.68;;;;;;;;;;5037973;28;20100;-87
2021/01/03 11:34:50;;;;;;;26.85;15.35;;;;;;;;;;5037846;28;20029;-87
2021/01/03 11:37:17;;;;;;;24.73;12.63;;;;;;;;;;5037780;28;20025;-87
2021/01/03 11:39:43;;;;;;;21.75;12.52;;;;;;;;;;5037906;28;20396;-87
2021/01/03 11:45:15;;;;;;;24.42;14.88;;;;;;;;;;5038168;28;20097;-88
2021/01/03 11:47:41;;;;;;;25.08;15.40;;;;;;;;;;5038198;28;20025;-89
2021/01/03 11:50:09;;;;;;;30.15;17.20;;;;;;;;;;5036934;28;20120;-87
2021/01/03 11:52:35;;;;;;;23.40;14.48;;;;;;;;;;5036772;28;20071;-88
2021/01/03 11:55:01;;;;;;;27.25;15.68;;;;;;;;;;5037103;28;20120;-86
2021/01/03 11:57:27;;;;;;;26.75;15.10;;;;;;;;;;5037890;28;20068;-86
2021/01/03 11:59:53;;;;;;;21.80;13.90;;;;;;;;;;5037900;28;20021;-87
2021/01/03 12:02:20;;;;;;;46.10;23.85;;;;;;;;;;5048794;28;20139;-86
2021/01/03 12:04:46;;;;;;;43.72;21.13;;;;;;;;;;5057947;28;20045;-91
2021/01/03 12:07:17;;;;;;;44.85;23.30;;;;;;;;;;5057510;28;20106;-90
2021/01/03 12:09:43;;;;;;;27.17;16.20;;;;;;;;;;5057525;28;20407;-89
2021/01/03 12:12:47;;;;;;;26.17;15.52;;;;;;;;;;5056577;28;20033;-91
2021/01/03 12:15:13;;;;;;;22.77;12.75;;;;;;;;;;5056484;28;20041;-90
2021/01/03 12:17:39;;;;;;;25.52;14.70;;;;;;;;;;5056417;28;20033;-90
2021/01/03 12:20:05;;;;;;;21.08;13.73;;;;;;;;;;5057324;28;20116;-91
2021/01/03 12:22:34;;;;;;;23.17;14.27;;;;;;;;;;5057693;28;20045;-90
2021/01/03 12:25:01;;;;;;;32.72;19.27;;;;;;;;;;5057378;28;20028;-90
2021/01/03 12:27:27;;;;;;;30.77;18.42;;;;;;;;;;5057687;28;20068;-90
2021/01/03 12:29:53;;;;;;;44.55;20.55;;;;;;;;;;5056342;28;20033;-89
2021/01/03 12:32:19;;;;;;;43.45;22.42;;;;;;;;;;5057008;28;20049;-90
2021/01/03 12:34:45;;;;;;;40.95;19.65;;;;;;;;;;5057152;28;20029;-90
2021/01/03 12:37:12;;;;;;;30.98;16.65;;;;;;;;;;5060882;28;20026;-89
2021/01/03 12:39:42;;;;;;;27.80;16.73;;;;;;;;;;5061535;28;20027;-90
2021/01/03 12:42:13;;;;;;;25.40;14.23;;;;;;;;;;5061562;28;20036;-89
2021/01/03 12:44:39;;;;;;;26.30;14.13;;;;;;;;;;5061125;28;20063;-90
2021/01/03 12:47:06;;;;;;;27.35;15.27;;;;;;;;;;5060871;28;20071;-90
2021/01/03 12:49:32;;;;;;;35.50;18.02;;;;;;;;;;5061147;28;20083;-90
2021/01/03 12:51:58;;;;;;;31.80;16.95;;;;;;;;;;5060152;28;20037;-90
2021/01/03 12:54:25;;;;;;;22.35;13.60;;;;;;;;;;5060837;28;20021;-90
2021/01/03 12:59:54;;;;;;;30.55;15.43;;;;;;;;;;5061024;28;20051;-90
2021/01/03 13:02:20;;;;;;;24.30;13.07;;;;;;;;;;5060810;28;20028;-90
2021/01/03 13:04:46;;;;;;;26.10;13.38;;;;;;;;;;5059744;28;20036;-89
2021/01/03 13:07:12;;;;;;;21.70;11.65;;;;;;;;;;5059718;28;20048;-91
2021/01/03 13:09:40;;;;;;;20.80;12.35;;;;;;;;;;5059698;28;20029;-90
2021/01/03 13:12:06;;;;;;;27.33;15.45;;;;;;;;;;5060843;28;20021;-90
2021/01/03 13:14:32;;;;;;;22.15;14.10;;;;;;;;;;5059285;28;20331;-90
2021/01/03 13:16:58;;;;;;;23.63;13.63;;;;;;;;;;5060328;28;20104;-90
2021/01/03 13:19:24;;;;;;;22.35;13.40;;;;;;;;;;5060485;28;20036;-90
2021/01/03 13:21:51;;;;;;;22.30;12.80;;;;;;;;;;5059209;28;20068;-90
2021/01/03 13:24:19;;;;;;;24.05;14.30;;;;;;;;;;5060315;28;20029;-90
2021/01/03 13:26:45;;;;;;;33.75;14.68;;;;;;;;;;5060647;28;20088;-89
2021/01/03 13:29:11;;;;;;;27.50;17.05;;;;;;;;;;5060532;28;20029;-90
2021/01/03 13:31:37;;;;;;;53.88;34.35;;;;;;;;;;5059357;28;20037;-90
2021/01/03 13:34:04;;;;;;;36.47;21.13;;;;;;;;;;5059281;28;20383;-90
2021/01/03 13:36:30;;;;;;;29.42;17.48;;;;;;;;;;5060106;28;20167;-89
2021/01/03 13:38:56;;;;;;;35.42;19.38;;;;;;;;;;5059015;28;20041;-89
2021/01/03 13:41:24;;;;;;;31.80;19.02;;;;;;;;;;5059921;28;20091;-89
2021/01/03 13:44:27;;;;;;;31.85;19.25;;;;;;;;;;5059146;28;20419;-90
2021/01/03 13:46:54;;;;;;;33.53;18.65;;;;;;;;;;5058527;28;20192;-89
2021/01/03 13:49:20;;;;;;;35.13;21.02;;;;;;;;;;5060062;28;20032;-90
2021/01/03 13:51:47;;;;;;;34.63;21.30;;;;;;;;;;5059605;28;20027;-90
2021/01/03 13:54:13;;;;;;;36.92;21.55;;;;;;;;;;5059525;28;20017;-89
2021/01/03 13:56:39;;;;;;;44.72;24.02;;;;;;;;;;5059869;28;20163;-90
2021/01/03 13:59:05;;;;;;;48.17;25.55;;;;;;;;;;5058468;28;20025;-89
2021/01/03 14:01:33;;;;;;;44.85;25.77;;;;;;;;;;5059702;28;20087;-89
2021/01/03 14:03:59;;;;;;;39.75;20.48;;;;;;;;;;5059607;28;20033;-89
2021/01/03 14:06:26;;;;;;;40.50;22.27;;;;;;;;;;5059167;28;20025;-90
2021/01/03 14:08:52;;;;;;;32.75;17.77;;;;;;;;;;5059505;28;20039;-89
2021/01/03 14:11:29;;;;;;;32.47;18.88;;;;;;;;;;5058476;28;20029;-88
2021/01/03 14:17:00;;;;;;;34.60;19.65;;;;;;;;;;5056182;28;20071;-89
2021/01/03 14:19:32;;;;;;;41.95;22.77;;;;;;;;;;5058386;28;20025;-89
2021/01/03 14:21:58;;;;;;;36.92;21.92;;;;;;;;;;5059322;28;20021;-89
2021/01/03 14:24:24;;;;;;;36.67;21.50;;;;;;;;;;5058223;28;20032;-89
2021/01/03 14:26:52;;;;;;;34.92;21.88;;;;;;;;;;5059252;28;20035;-89
2021/01/03 14:29:22;;;;;;;35.60;22.10;;;;;;;;;;5059385;28;20025;-89
2021/01/03 14:31:58;;;;;;;40.38;25.10;;;;;;;;;;5058020;28;20029;-90
2021/01/03 14:34:30;;;;;;;50.50;27.55;;;;;;;;;;5059424;28;20135;-90
2021/01/03 14:37:10;;;;;;;74.35;34.53;;;;;;;;;;5058838;28;20025;-89
2021/01/03 14:39:38;;;;;;;64.32;30.65;;;;;;;;;;5058978;28;20032;-89
2021/01/03 14:42:05;;;;;;;41.38;24.30;;;;;;;;;;5058991;28;20102;-89
2021/01/03 14:44:31;;;;;;;41.17;24.42;;;;;;;;;;5059119;28;20323;-89
2021/01/03 14:47:00;;;;;;;27.90;17.00;;;;;;;;;;5058970;28;20025;-90
2021/01/03 14:49:42;;;;;;;34.53;21.05;;;;;;;;;;5058710;28;20021;-91
2021/01/03 14:52:08;;;;;;;30.27;18.30;;;;;;;;;;5059039;28;20047;-90
2021/01/03 14:54:42;;;;;;;25.90;16.10;;;;;;;;;;5057750;28;20025;-91
2021/01/03 14:57:08;;;;;;;33.90;17.35;;;;;;;;;;5058707;28;20029;-91
2021/01/03 14:59:53;;;;;;;26.23;14.65;;;;;;;;;;5048295;28;20021;-90
2021/01/03 15:02:48;;;;;;;19.10;11.93;;;;;;;;;;5037584;28;20021;-90
2021/01/03 15:05:20;;;;;;;23.45;12.10;;;;;;;;;;5036700;28;20459;-90
2021/01/03 15:07:49;;;;;;;20.83;12.93;;;;;;;;;;5020254;28;20053;-90
2021/01/03 15:10:17;;;;;;;24.67;15.25;;;;;;;;;;5036780;28;20065;-89
2021/01/03 15:12:44;;;;;;;27.27;15.82;;;;;;;;;;5020110;28;20025;-91
2021/01/03 15:15:18;;;;;;;21.92;13.18;;;;;;;;;;5036869;28;20047;-90
2021/01/03 15:17:44;;;;;;;24.67;14.63;;;;;;;;;;5036507;28;20026;-90